Time;durP1;ratioP1;P1;durP2;ratioP2;P2;SDS_P1;SDS_P2;PMS_P1;PMS_P2;Temp;Humidity;BMP_temperature;BMP_pressure;BME280_temperature;BME280_humidity;BME280_pressure;Samples;Min_cycle;Max_cycle;Signal;HPM_P1;HPM_P2
2023/12/21 00:00:59;;;;;;;7.25;3.13;;;9.80;99.90;;;;;;4968688;28;20097;-71
2023/12/21 00:03:24;;;;;;;1.17;1.08;;;9.80;99.90;;;;;;4962643;28;20066;-71
2023/12/21 00:05:51;;;;;;;0.00;0.00;;;9.80;99.90;;;;;;4970498;28;20126;-71
2023/12/21 00:08:16;;;;;;;0.10;0.10;;;9.80;99.90;;;;;;4976559;28;20042;-71
2023/12/21 00:10:42;;;;;;;1.20;1.10;;;9.80;99.90;;;;;;4967268;28;20035;-71
2023/12/21 00:13:07;;;;;;;0.52;0.52;;;9.90;99.90;;;;;;4965614;28;20541;-71
2023/12/21 00:15:33;;;;;;;0.40;0.40;;;9.90;99.90;;;;;;4968288;28;20090;-71
2023/12/21 00:17:58;;;;;;;0.10;0.10;;;9.80;99.90;;;;;;4962735;28;20473;-71
2023/12/21 00:20:24;;;;;;;4.03;1.65;;;9.80;99.90;;;;;;4969641;28;20043;-71
2023/12/21 00:22:50;;;;;;;0.30;0.30;;;9.80;99.90;;;;;;4968812;28;20055;-71
2023/12/21 00:25:15;;;;;;;0.15;0.15;;;9.90;99.90;;;;;;4964747;28;20086;-71
2023/12/21 00:27:41;;;;;;;0.10;0.10;;;9.90;99.90;;;;;;4966540;28;20039;-71
2023/12/21 00:30:07;;;;;;;0.10;0.10;;;9.80;99.90;;;;;;4969742;28;20105;-70
2023/12/21 00:32:33;;;;;;;0.10;0.10;;;9.90;99.90;;;;;;4959251;28;20513;-71
2023/12/21 00:34:58;;;;;;;0.45;0.45;;;9.90;99.90;;;;;;4964146;28;20129;-71
2023/12/21 00:37:24;;;;;;;3.28;2.25;;;9.90;99.90;;;;;;4957339;28;20058;-70
2023/12/21 00:39:50;;;;;;;0.10;0.10;;;9.90;99.90;;;;;;4971383;28;20418;-70
2023/12/21 00:42:16;;;;;;;0.10;0.10;;;9.90;99.90;;;;;;4968106;28;20054;-71
2023/12/21 00:44:42;;;;;;;0.40;0.40;;;9.90;99.90;;;;;;4963799;28;20043;-70
2023/12/21 00:47:08;;;;;;;1.75;0.35;;;9.90;99.90;;;;;;4969860;28;20071;-70
2023/12/21 00:49:33;;;;;;;0.10;0.10;;;9.90;99.90;;;;;;4961720;28;20502;-70
2023/12/21 00:51:59;;;;;;;0.10;0.10;;;9.90;99.90;;;;;;4957890;28;20395;-70
2023/12/21 00:54:25;;;;;;;0.10;0.10;;;9.90;99.90;;;;;;4969390;28;20445;-70
2023/12/21 00:56:50;;;;;;;0.40;0.40;;;9.90;99.90;;;;;;4965262;28;20058;-71
2023/12/21 00:59:16;;;;;;;1.95;1.85;;;9.90;99.90;;;;;;4965674;28;20050;-71
2023/12/21 01:01:42;;;;;;;0.20;0.20;;;9.90;99.90;;;;;;4969261;28;20122;-70
2023/12/21 01:04:07;;;;;;;3.90;1.65;;;9.90;99.90;;;;;;4962045;28;20166;-70
2023/12/21 01:06:36;;;;;;;0.10;0.10;;;9.90;99.90;;;;;;4973139;28;20039;-70
2023/12/21 01:09:03;;;;;;;0.63;0.63;;;9.90;99.90;;;;;;4969556;28;20097;-70
2023/12/21 01:11:28;;;;;;;0.17;0.17;;;9.90;99.90;;;;;;4965642;28;20103;-70
2023/12/21 01:13:54;;;;;;;0.10;0.10;;;9.90;99.90;;;;;;4961418;28;20494;-70
2023/12/21 01:16:19;;;;;;;0.13;0.13;;;9.90;99.90;;;;;;4974392;28;20155;-70
2023/12/21 01:18:46;;;;;;;4.90;0.85;;;9.90;99.90;;;;;;4968522;28;20525;-70
2023/12/21 01:21:12;;;;;;;0.35;0.35;;;9.90;99.90;;;;;;4959767;28;20047;-70
2023/12/21 01:23:37;;;;;;;0.55;0.52;;;9.80;99.90;;;;;;4970901;28;20035;-70
2023/12/21 01:26:03;;;;;;;0.47;0.47;;;9.80;99.90;;;;;;4968139;28;20053;-70
2023/12/21 01:28:29;;;;;;;0.10;0.10;;;9.80;99.90;;;;;;4960705;28;20134;-70
2023/12/21 01:30:54;;;;;;;0.10;0.10;;;9.80;99.90;;;;;;4957437;28;20078;-70
2023/12/21 01:33:20;;;;;;;0.10;0.10;;;9.80;99.90;;;;;;4960719;28;20046;-70
2023/12/21 01:35:45;;;;;;;0.40;0.40;;;9.80;99.90;;;;;;4961469;28;20122;-70
2023/12/21 01:38:11;;;;;;;0.45;0.45;;;9.80;99.90;;;;;;4962007;28;20072;-70
2023/12/21 01:40:37;;;;;;;0.63;0.63;;;9.80;99.90;;;;;;4955779;28;20061;-70
2023/12/21 01:43:02;;;;;;;0.00;0.00;;;9.80;99.90;;;;;;4984033;28;20138;-70
2023/12/21 01:45:28;;;;;;;0.52;0.52;;;9.80;99.90;;;;;;4966169;28;20117;-70
2023/12/21 01:47:55;;;;;;;7.57;1.75;;;9.80;99.90;;;;;;4972294;28;20538;-70
2023/12/21 01:50:21;;;;;;;0.28;0.28;;;9.80;99.90;;;;;;4971139;28;20043;-70
2023/12/21 01:52:47;;;;;;;1.45;0.75;;;9.80;99.90;;;;;;4968052;28;20449;-70
2023/12/21 01:55:14;;;;;;;5.60;1.48;;;9.80;99.90;;;;;;4966105;28;20061;-70
2023/12/21 01:57:40;;;;;;;0.10;0.10;;;9.80;99.90;;;;;;4973544;28;20078;-70
2023/12/21 02:00:06;;;;;;;3.50;2.13;;;9.80;99.90;;;;;;4972063;28;20035;-70
2023/12/21 02:02:32;;;;;;;0.00;0.00;;;9.80;99.90;;;;;;4966132;28;20400;-70
2023/12/21 02:04:58;;;;;;;0.10;0.10;;;9.80;99.90;;;;;;4960376;28;20043;-70
2023/12/21 02:07:24;;;;;;;2.45;1.35;;;9.80;99.90;;;;;;4969957;28;20479;-70
2023/12/21 02:09:49;;;;;;;8.88;1.65;;;9.80;99.90;;;;;;4967120;28;20058;-70
2023/12/21 02:12:15;;;;;;;0.10;0.10;;;9.80;99.90;;;;;;4965051;28;20062;-70
2023/12/21 02:14:40;;;;;;;0.00;0.00;;;9.80;99.90;;;;;;4961986;28;20039;-70
2023/12/21 02:17:10;;;;;;;0.00;0.00;;;9.80;99.90;;;;;;4972450;28;20430;-70
2023/12/21 02:19:37;;;;;;;1.55;1.45;;;9.70;99.90;;;;;;4960834;28;20036;-70
2023/12/21 02:22:04;;;;;;;0.10;0.10;;;9.70;99.90;;;;;;4973150;28;20074;-70
2023/12/21 02:24:30;;;;;;;1.05;0.95;;;9.80;99.90;;;;;;4965660;28;20054;-70
2023/12/21 02:26:56;;;;;;;0.17;0.17;;;9.70;99.90;;;;;;4965361;28;20050;-70
2023/12/21 02:29:21;;;;;;;0.13;0.13;;;9.70;99.90;;;;;;4971706;28;20483;-70
2023/12/21 02:31:47;;;;;;;0.03;0.03;;;9.70;99.90;;;;;;4974776;28;20058;-70
2023/12/21 02:34:13;;;;;;;0.50;0.50;;;9.70;99.90;;;;;;4967186;28;20051;-70
2023/12/21 02:36:38;;;;;;;0.45;0.45;;;9.70;99.90;;;;;;4965336;28;20034;-70
2023/12/21 02:39:04;;;;;;;7.68;2.75;;;9.70;99.90;;;;;;4968679;28;20100;-70
2023/12/21 02:41:29;;;;;;;0.20;0.20;;;9.70;99.90;;;;;;4968041;28;20066;-71
2023/12/21 02:43:55;;;;;;;0.20;0.20;;;9.70;99.90;;;;;;4978765;28;20047;-70
2023/12/21 02:46:24;;;;;;;5.38;2.72;;;9.70;99.90;;;;;;4972892;28;20097;-71
2023/12/21 02:48:51;;;;;;;0.10;0.10;;;9.70;99.90;;;;;;4963597;28;20376;-71
2023/12/21 02:51:17;;;;;;;0.00;0.00;;;9.70;99.90;;;;;;4968472;28;20051;-70
2023/12/21 02:53:43;;;;;;;0.10;0.10;;;9.70;99.90;;;;;;4962787;28;20053;-71
2023/12/21 02:56:08;;;;;;;0.00;0.00;;;9.70;99.90;;;;;;4964342;28;20043;-71
2023/12/21 02:58:34;;;;;;;0.10;0.10;;;9.70;99.90;;;;;;4970014;28;20061;-71
2023/12/21 03:01:01;;;;;;;8.77;1.00;;;9.70;99.90;;;;;;4973148;28;20105;-71
2023/12/21 03:03:27;;;;;;;0.00;0.00;;;9.70;99.90;;;;;;4971440;28;20038;-71
2023/12/21 03:05:52;;;;;;;0.50;0.50;;;9.70;99.90;;;;;;4962807;28;20074;-71
2023/12/21 03:08:18;;;;;;;0.20;0.20;;;9.70;99.90;;;;;;4968750;28;20043;-71
2023/12/21 03:10:43;;;;;;;0.10;0.10;;;9.70;99.90;;;;;;4969555;28;20091;-71
2023/12/21 03:13:09;;;;;;;0.10;0.10;;;9.60;99.90;;;;;;4968121;28;20074;-70
2023/12/21 03:15:35;;;;;;;0.35;0.35;;;9.70;99.90;;;;;;4969307;28;20068;-71
2023/12/21 03:18:00;;;;;;;1.05;1.02;;;9.70;99.90;;;;;;4970557;28;20525;-71
2023/12/21 03:20:26;;;;;;;0.47;0.47;;;9.70;99.90;;;;;;4964477;28;20050;-70
2023/12/21 03:22:51;;;;;;;0.00;0.00;;;9.70;99.90;;;;;;4968459;28;20167;-71
2023/12/21 03:25:17;;;;;;;0.20;0.20;;;9.70;99.90;;;;;;4968494;28;20046;-71
2023/12/21 03:27:42;;;;;;;0.70;0.70;;;9.70;99.90;;;;;;4968047;28;20381;-71
2023/12/21 03:30:08;;;;;;;0.10;0.10;;;9.70;99.90;;;;;;4967584;28;20063;-71
2023/12/21 03:32:36;;;;;;;0.10;0.10;;;9.80;99.90;;;;;;4968537;28;20042;-71
2023/12/21 03:35:03;;;;;;;0.10;0.10;;;9.80;99.90;;;;;;4970734;28;20636;-70
2023/12/21 03:37:29;;;;;;;1.30;1.27;;;9.80;99.90;;;;;;4967120;28;20100;-71
2023/12/21 03:39:58;;;;;;;0.10;0.10;;;9.80;99.90;;;;;;4960189;28;20079;-71
2023/12/21 03:42:23;;;;;;;1.20;1.02;;;9.80;99.90;;;;;;4964595;28;20394;-70
2023/12/21 03:44:49;;;;;;;0.05;0.05;;;9.80;99.90;;;;;;4955162;28;20043;-71
2023/12/21 03:47:15;;;;;;;22.52;0.85;;;9.80;99.90;;;;;;4960619;28;20045;-70
2023/12/21 03:49:41;;;;;;;0.00;0.00;;;9.80;99.90;;;;;;4967983;28;20117;-70
2023/12/21 03:52:06;;;;;;;0.73;0.52;;;9.80;99.90;;;;;;4962332;28;20483;-71
2023/12/21 03:54:32;;;;;;;0.10;0.10;;;9.80;99.90;;;;;;4963251;28;20046;-70
2023/12/21 03:56:57;;;;;;;0.43;0.43;;;9.80;99.90;;;;;;4968410;28;20045;-70
2023/12/21 03:59:23;;;;;;;0.32;0.32;;;9.80;99.90;;;;;;4970412;28;20526;-70
2023/12/21 04:01:48;;;;;;;1.55;0.52;;;9.80;99.90;;;;;;4969586;28;20051;-70
2023/12/21 04:04:14;;;;;;;0.22;0.22;;;9.80;99.90;;;;;;4957990;28;20501;-70
2023/12/21 04:06:40;;;;;;;0.00;0.00;;;9.80;99.90;;;;;;4951742;28;20043;-70
2023/12/21 04:09:06;;;;;;;0.32;0.32;;;9.80;99.90;;;;;;4962783;28;20053;-70
2023/12/21 04:11:31;;;;;;;0.08;0.08;;;9.80;99.90;;;;;;4963910;28;20047;-71
2023/12/21 04:13:57;;;;;;;0.00;0.00;;;9.80;99.90;;;;;;4956981;28;20047;-70
2023/12/21 04:16:22;;;;;;;0.25;0.25;;;9.80;99.90;;;;;;4969201;28;20043;-70
2023/12/21 04:18:48;;;;;;;0.03;0.03;;;9.80;99.90;;;;;;4958381;28;20050;-70
2023/12/21 04:21:14;;;;;;;1.13;1.13;;;9.80;99.90;;;;;;4963392;28;20070;-70
2023/12/21 04:23:39;;;;;;;0.75;0.73;;;9.80;99.90;;;;;;4958244;28;20419;-70
2023/12/21 04:26:05;;;;;;;0.10;0.10;;;9.80;99.90;;;;;;4964916;28;20511;-70
2023/12/21 04:28:31;;;;;;;1.55;1.17;;;9.80;99.90;;;;;;4962574;28;20082;-71
2023/12/21 04:30:56;;;;;;;0.10;0.10;;;9.70;99.90;;;;;;4970321;28;20047;-70
2023/12/21 04:33:22;;;;;;;1.35;1.20;;;9.80;99.90;;;;;;4968827;28;20061;-71
2023/12/21 04:35:47;;;;;;;0.00;0.00;;;9.80;99.90;;;;;;4964586;28;20058;-70
2023/12/21 04:38:13;;;;;;;0.73;0.73;;;9.80;99.90;;;;;;4964487;28;20403;-70
2023/12/21 04:40:39;;;;;;;0.40;0.40;;;9.80;99.90;;;;;;4970161;28;20075;-70
2023/12/21 04:43:06;;;;;;;0.10;0.10;;;9.80;99.90;;;;;;4960311;28;20026;-70
2023/12/21 04:45:32;;;;;;;0.10;0.10;;;9.80;99.90;;;;;;4963697;28;20046;-70
2023/12/21 04:47:57;;;;;;;0.10;0.10;;;9.80;99.90;;;;;;4975688;28;20051;-70
2023/12/21 04:50:23;;;;;;;0.10;0.10;;;9.80;99.90;;;;;;4961463;28;20053;-71
2023/12/21 04:52:49;;;;;;;0.45;0.45;;;9.80;99.90;;;;;;4965552;28;20461;-71
2023/12/21 04:55:15;;;;;;;0.10;0.10;;;9.90;99.90;;;;;;4964793;28;20050;-71
2023/12/21 04:57:41;;;;;;;1.23;1.20;;;9.80;99.90;;;;;;4968987;28;20038;-70
2023/12/21 05:00:07;;;;;;;0.00;0.00;;;9.90;99.90;;;;;;4957121;28;20039;-70
2023/12/21 05:02:34;;;;;;;0.00;0.00;;;9.90;99.90;;;;;;4958467;28;20055;-71
2023/12/21 05:05:00;;;;;;;0.20;0.20;;;9.90;99.90;;;;;;4962982;28;20471;-71
2023/12/21 05:07:25;;;;;;;0.20;0.20;;;9.90;99.90;;;;;;4966967;28;20101;-71
2023/12/21 05:09:51;;;;;;;0.10;0.10;;;9.90;99.90;;;;;;4956136;28;20043;-70
2023/12/21 05:12:17;;;;;;;1.67;1.58;;;9.90;99.90;;;;;;4969102;28;20050;-71
2023/12/21 05:14:43;;;;;;;0.40;0.40;;;10.00;99.90;;;;;;4968696;28;20047;-71
2023/12/21 05:17:08;;;;;;;0.20;0.20;;;10.00;99.90;;;;;;4959375;28;20058;-70
2023/12/21 05:19:34;;;;;;;6.93;1.85;;;10.00;99.90;;;;;;4970667;28;20471;-71
2023/12/21 05:22:00;;;;;;;3.63;1.75;;;10.10;99.90;;;;;;4970300;28;20495;-70
2023/12/21 05:24:25;;;;;;;0.70;0.47;;;10.10;99.90;;;;;;4961190;28;20042;-71
2023/12/21 05:26:51;;;;;;;0.08;0.08;;;10.00;99.90;;;;;;4970498;28;20462;-70
2023/12/21 05:29:16;;;;;;;0.30;0.30;;;10.00;99.90;;;;;;4958774;28;20435;-70
2023/12/21 05:31:42;;;;;;;0.65;0.55;;;10.10;99.90;;;;;;4969385;28;20057;-70
2023/12/21 05:34:08;;;;;;;0.85;0.85;;;10.10;99.90;;;;;;4967133;28;20047;-70
2023/12/21 05:36:34;;;;;;;1.50;1.05;;;10.10;99.90;;;;;;4966592;28;20114;-71
2023/12/21 05:39:00;;;;;;;0.20;0.20;;;10.10;99.90;;;;;;4972501;28;20133;-70
2023/12/21 05:41:26;;;;;;;3.35;1.33;;;10.10;99.90;;;;;;4960786;28;20043;-70
2023/12/21 05:43:52;;;;;;;1.00;1.00;;;10.10;99.90;;;;;;4962192;28;20058;-70
2023/12/21 05:46:18;;;;;;;0.43;0.43;;;10.10;99.90;;;;;;4965168;28;20083;-70
2023/12/21 05:48:44;;;;;;;0.10;0.10;;;10.10;99.90;;;;;;4963714;28;20519;-71
2023/12/21 05:51:10;;;;;;;1.33;1.00;;;10.10;99.90;;;;;;4961691;28;20343;-70
2023/12/21 05:53:35;;;;;;;8.10;3.15;;;10.10;99.90;;;;;;4971067;28;20438;-71
2023/12/21 05:56:02;;;;;;;0.63;0.63;;;10.10;99.90;;;;;;4967790;28;20089;-70
2023/12/21 05:58:28;;;;;;;0.85;0.85;;;10.10;99.90;;;;;;4966042;28;20061;-70
2023/12/21 06:00:54;;;;;;;0.25;0.25;;;10.10;99.90;;;;;;4969211;28;20046;-71
2023/12/21 06:03:20;;;;;;;0.10;0.10;;;10.10;99.90;;;;;;4968238;28;20474;-70
2023/12/21 06:05:45;;;;;;;0.57;0.57;;;10.10;99.90;;;;;;4964663;28;20054;-70
2023/12/21 06:08:11;;;;;;;3.75;1.40;;;10.10;99.90;;;;;;4967700;28;20061;-70
2023/12/21 06:10:37;;;;;;;0.10;0.10;;;10.00;99.90;;;;;;4967322;28;20042;-70
2023/12/21 06:13:02;;;;;;;0.20;0.20;;;10.00;99.90;;;;;;4962757;28;20051;-70
2023/12/21 06:15:28;;;;;;;0.10;0.10;;;10.00;99.90;;;;;;4959164;28;20097;-70
2023/12/21 06:17:54;;;;;;;0.00;0.00;;;10.00;99.90;;;;;;4967039;28;20545;-70
2023/12/21 06:20:19;;;;;;;1.95;1.08;;;9.90;99.90;;;;;;4962674;28;20051;-71
2023/12/21 06:22:45;;;;;;;0.68;0.68;;;9.90;99.90;;;;;;4966855;28;20877;-70
2023/12/21 06:25:11;;;;;;;0.00;0.00;;;9.80;99.90;;;;;;4958274;28;20410;-70
2023/12/21 06:27:37;;;;;;;0.10;0.10;;;9.80;99.90;;;;;;4963902;28;20126;-71
2023/12/21 06:30:04;;;;;;;0.30;0.30;;;9.80;99.90;;;;;;4968092;28;20047;-71
2023/12/21 06:32:30;;;;;;;0.10;0.10;;;9.70;99.90;;;;;;4965296;28;20537;-71
2023/12/21 06:34:56;;;;;;;0.52;0.52;;;9.70;99.90;;;;;;4965664;28;20043;-72
2023/12/21 06:37:21;;;;;;;0.55;0.55;;;9.70;99.90;;;;;;4962608;28;20190;-72
2023/12/21 06:39:47;;;;;;;1.58;1.48;;;9.70;99.90;;;;;;4961959;28;20054;-72
2023/12/21 06:42:12;;;;;;;0.10;0.10;;;9.60;99.90;;;;;;4971782;28;20047;-72
2023/12/21 06:44:39;;;;;;;0.20;0.20;;;9.60;99.90;;;;;;4968757;28;20501;-72
2023/12/21 06:47:05;;;;;;;0.98;0.75;;;9.60;99.90;;;;;;4964116;28;20138;-72
2023/12/21 06:49:30;;;;;;;0.10;0.10;;;9.60;99.90;;;;;;4973124;28;20126;-71
2023/12/21 06:51:56;;;;;;;0.65;0.65;;;9.60;99.90;;;;;;4969642;28;20047;-72
2023/12/21 06:54:22;;;;;;;0.10;0.10;;;9.60;99.90;;;;;;4963274;28;20473;-72
2023/12/21 06:56:47;;;;;;;0.10;0.10;;;9.60;99.90;;;;;;4964307;28;20506;-72
2023/12/21 06:59:13;;;;;;;0.17;0.17;;;9.60;99.90;;;;;;4969611;28;20054;-72
2023/12/21 07:01:39;;;;;;;3.10;1.55;;;9.60;99.90;;;;;;4968035;28;20058;-72
2023/12/21 07:04:05;;;;;;;2.13;1.05;;;9.60;99.90;;;;;;4966821;28;20043;-73
2023/12/21 07:06:30;;;;;;;0.52;0.52;;;9.60;99.90;;;;;;4970927;28;20045;-72
2023/12/21 07:08:56;;;;;;;0.20;0.20;;;9.60;99.90;;;;;;4970740;28;20125;-72
2023/12/21 07:11:22;;;;;;;1.95;0.88;;;9.60;99.90;;;;;;4970886;28;20083;-72
2023/12/21 07:13:48;;;;;;;0.10;0.10;;;9.60;99.90;;;;;;4968979;28;20797;-72
2023/12/21 07:16:13;;;;;;;1.42;1.33;;;9.60;99.90;;;;;;4969251;28;20053;-71
2023/12/21 07:18:39;;;;;;;2.65;0.35;;;9.60;99.90;;;;;;4971695;28;20965;-72
2023/12/21 07:21:05;;;;;;;0.10;0.10;;;9.60;99.90;;;;;;4969155;28;20054;-73
2023/12/21 07:23:31;;;;;;;0.47;0.47;;;9.60;99.90;;;;;;4967796;28;20043;-73
2023/12/21 07:25:57;;;;;;;0.30;0.30;;;9.60;99.90;;;;;;4969812;28;20090;-73
2023/12/21 07:28:23;;;;;;;0.10;0.10;;;9.70;99.90;;;;;;4970005;28;20054;-73
2023/12/21 07:30:49;;;;;;;0.85;0.65;;;9.60;99.90;;;;;;4965348;28;20086;-73
2023/12/21 07:33:15;;;;;;;0.00;0.00;;;9.70;99.90;;;;;;4972240;28;20085;-72
2023/12/21 07:35:41;;;;;;;0.30;0.30;;;9.70;99.90;;;;;;4967048;28;20039;-73
2023/12/21 07:38:07;;;;;;;0.40;0.40;;;9.70;99.90;;;;;;4969988;28;20063;-73
2023/12/21 07:40:33;;;;;;;0.00;0.00;;;9.70;99.90;;;;;;4961929;28;20055;-72
2023/12/21 07:42:58;;;;;;;0.38;0.38;;;9.70;99.90;;;;;;4961273;28;20082;-73
2023/12/21 07:45:24;;;;;;;0.65;0.65;;;9.80;99.90;;;;;;4970077;28;20521;-73
2023/12/21 07:47:50;;;;;;;16.65;3.40;;;9.70;99.90;;;;;;4969137;28;20073;-73
2023/12/21 07:50:15;;;;;;;0.10;0.10;;;9.80;99.90;;;;;;4959848;28;20030;-73
2023/12/21 07:52:41;;;;;;;1.08;0.95;;;9.80;99.90;;;;;;4966558;28;20113;-73
2023/12/21 07:55:07;;;;;;;0.10;0.10;;;9.90;99.90;;;;;;4961483;28;20066;-73
2023/12/21 07:57:33;;;;;;;0.55;0.55;;;9.90;99.90;;;;;;4975949;28;20057;-72
2023/12/21 07:59:58;;;;;;;0.00;0.00;;;9.90;99.90;;;;;;4970880;28;20045;-72
2023/12/21 08:02:24;;;;;;;0.65;0.65;;;10.00;99.90;;;;;;4978836;28;20082;-73
2023/12/21 08:04:50;;;;;;;0.03;0.03;;;10.00;99.90;;;;;;4967146;28;20046;-72
2023/12/21 08:07:16;;;;;;;0.73;0.73;;;10.10;99.90;;;;;;4970980;28;20074;-73
2023/12/21 08:09:42;;;;;;;0.20;0.20;;;10.10;99.90;;;;;;4955494;28;20468;-73
2023/12/21 08:12:08;;;;;;;0.45;0.45;;;10.10;99.90;;;;;;4977643;28;20634;-72
2023/12/21 08:14:37;;;;;;;0.10;0.10;;;10.20;99.90;;;;;;4966050;28;20042;-73
2023/12/21 08:17:07;;;;;;;0.10;0.10;;;10.20;99.90;;;;;;4968310;28;20046;-72
2023/12/21 08:19:33;;;;;;;0.00;0.00;;;10.20;99.90;;;;;;4955558;28;20510;-72
2023/12/21 08:21:59;;;;;;;0.10;0.10;;;10.20;99.90;;;;;;4962058;28;20063;-72
2023/12/21 08:24:24;;;;;;;1.45;1.05;;;10.20;99.90;;;;;;4960729;28;20071;-72
2023/12/21 08:26:50;;;;;;;1.20;1.10;;;10.20;99.90;;;;;;4961544;28;20039;-72
2023/12/21 08:29:16;;;;;;;1.38;1.30;;;10.20;99.90;;;;;;4966437;28;20050;-72
2023/12/21 08:31:41;;;;;;;0.10;0.10;;;10.20;99.90;;;;;;4965844;28;20893;-72
2023/12/21 08:34:07;;;;;;;0.25;0.25;;;10.20;99.90;;;;;;4960140;28;20039;-72
2023/12/21 08:36:33;;;;;;;0.10;0.10;;;10.20;99.90;;;;;;4975198;28;20283;-72
2023/12/21 08:38:58;;;;;;;1.67;0.65;;;10.20;99.90;;;;;;4959121;28;20077;-72
2023/12/21 08:41:26;;;;;;;1.45;0.98;;;10.20;99.90;;;;;;4964023;28;20055;-72
2023/12/21 08:43:51;;;;;;;5.57;1.85;;;10.20;99.90;;;;;;4968353;28;20137;-73
2023/12/21 08:46:17;;;;;;;0.15;0.15;;;10.30;99.90;;;;;;4958577;28;20085;-72
2023/12/21 08:48:43;;;;;;;1.02;0.90;;;10.30;99.90;;;;;;4950078;28;20066;-73
2023/12/21 08:51:08;;;;;;;1.08;0.80;;;10.30;99.90;;;;;;4959927;28;20043;-72
2023/12/21 08:53:34;;;;;;;0.50;0.50;;;10.30;99.90;;;;;;4966627;28;20130;-72
2023/12/21 08:56:02;;;;;;;6.13;2.67;;;10.30;99.90;;;;;;4968096;28;20737;-72
2023/12/21 08:58:27;;;;;;;0.50;0.50;;;10.30;99.90;;;;;;4957954;28;20043;-72
2023/12/21 09:00:53;;;;;;;4.75;2.78;;;10.30;99.90;;;;;;4969930;28;20474;-72
2023/12/21 09:03:19;;;;;;;0.00;0.00;;;10.40;99.90;;;;;;4967560;28;20045;-70
2023/12/21 09:05:45;;;;;;;0.10;0.10;;;10.40;99.90;;;;;;4965886;28;20070;-72
2023/12/21 09:08:10;;;;;;;0.10;0.10;;;10.30;99.90;;;;;;4958400;28;20043;-72
2023/12/21 09:10:36;;;;;;;0.32;0.32;;;10.40;99.90;;;;;;4967438;28;20397;-72
2023/12/21 09:13:02;;;;;;;1.38;1.27;;;10.40;99.90;;;;;;4961726;28;20049;-73
2023/12/21 09:15:28;;;;;;;4.30;2.05;;;10.50;99.90;;;;;;4965917;28;20047;-72
2023/12/21 09:17:54;;;;;;;0.20;0.20;;;10.50;99.90;;;;;;4958939;28;20047;-72
2023/12/21 09:20:20;;;;;;;0.95;0.95;;;10.50;99.90;;;;;;4964560;28;20054;-72
2023/12/21 09:22:47;;;;;;;3.30;0.75;;;10.50;99.90;;;;;;4969038;28;20097;-72
2023/12/21 09:25:13;;;;;;;0.10;0.10;;;10.50;99.90;;;;;;4967895;28;20105;-72
2023/12/21 09:27:38;;;;;;;0.20;0.20;;;10.60;99.90;;;;;;4973400;28;20047;-72
2023/12/21 09:30:05;;;;;;;0.00;0.00;;;10.60;99.90;;;;;;4961396;28;20101;-72
2023/12/21 09:32:31;;;;;;;2.90;1.42;;;10.60;99.90;;;;;;4966897;28;20039;-72
2023/12/21 09:34:57;;;;;;;4.13;2.83;;;10.70;99.90;;;;;;4957625;28;20079;-71
2023/12/21 09:37:22;;;;;;;0.40;0.40;;;10.70;99.90;;;;;;4967764;28;20082;-71
2023/12/21 09:39:49;;;;;;;0.13;0.13;;;10.70;99.90;;;;;;4954139;28;20551;-72
2023/12/21 09:42:15;;;;;;;0.00;0.00;;;10.70;99.90;;;;;;4961877;28;20818;-72
2023/12/21 09:44:44;;;;;;;0.10;0.10;;;10.70;99.90;;;;;;4961752;28;20051;-72
2023/12/21 09:47:13;;;;;;;0.08;0.08;;;10.70;99.90;;;;;;4967211;28;20078;-72
2023/12/21 09:49:40;;;;;;;0.20;0.20;;;10.70;99.90;;;;;;4958316;28;20059;-72
2023/12/21 09:52:08;;;;;;;0.40;0.40;;;10.70;99.90;;;;;;4964014;28;20490;-72
2023/12/21 09:54:39;;;;;;;0.10;0.10;;;10.70;99.90;;;;;;4964907;28;20051;-72
2023/12/21 09:57:06;;;;;;;0.40;0.40;;;10.80;99.90;;;;;;4959089;28;20035;-72
2023/12/21 09:59:34;;;;;;;10.32;2.20;;;10.80;99.90;;;;;;4969549;28;20081;-71
2023/12/21 10:02:01;;;;;;;3.40;2.05;;;10.80;99.90;;;;;;4969047;28;20046;-72
2023/12/21 10:04:26;;;;;;;0.13;0.13;;;10.80;99.90;;;;;;4960297;28;20042;-72
2023/12/21 10:06:52;;;;;;;0.90;0.90;;;10.90;99.90;;;;;;4969362;28;20106;-72
2023/12/21 10:09:19;;;;;;;0.98;0.47;;;10.80;99.90;;;;;;4969215;28;20407;-72
2023/12/21 10:11:44;;;;;;;0.40;0.40;;;10.90;99.90;;;;;;4965868;28;20061;-72
2023/12/21 10:14:19;;;;;;;0.10;0.10;;;10.80;99.90;;;;;;4962876;28;20404;-72
2023/12/21 10:16:44;;;;;;;2.40;1.40;;;10.90;99.90;;;;;;4955754;28;20054;-71
2023/12/21 10:19:11;;;;;;;0.10;0.10;;;10.90;99.90;;;;;;4960636;28;20045;-72
2023/12/21 10:21:41;;;;;;;1.13;1.02;;;10.90;99.90;;;;;;4972594;28;20125;-72
2023/12/21 10:24:10;;;;;;;0.03;0.03;;;11.00;99.90;;;;;;4973435;28;20081;-72
2023/12/21 10:26:46;;;;;;;0.15;0.15;;;10.90;99.90;;;;;;4964807;28;20055;-72
2023/12/21 10:29:16;;;;;;;0.17;0.17;;;11.00;99.90;;;;;;4965204;28;20073;-71
2023/12/21 10:31:45;;;;;;;0.00;0.00;;;11.00;99.90;;;;;;4960032;28;20118;-69
2023/12/21 10:34:11;;;;;;;0.10;0.10;;;11.00;99.90;;;;;;4963801;28;20453;-70
2023/12/21 10:36:44;;;;;;;3.30;1.75;;;11.00;99.90;;;;;;4994759;28;20438;-70
2023/12/21 10:39:11;;;;;;;16.05;3.88;;;10.90;99.90;;;;;;4965013;28;20439;-69
2023/12/21 10:41:39;;;;;;;2.90;1.55;;;11.00;99.90;;;;;;4961373;28;20047;-69
2023/12/21 10:44:05;;;;;;;2.28;2.05;;;11.00;99.90;;;;;;4958764;28;20038;-68
2023/12/21 10:46:31;;;;;;;0.10;0.10;;;11.00;99.90;;;;;;4967936;28;20390;-68
2023/12/21 10:49:00;;;;;;;0.10;0.10;;;11.00;99.90;;;;;;4969400;28;20043;-69
2023/12/21 10:51:35;;;;;;;0.10;0.10;;;11.00;99.90;;;;;;4970886;28;20042;-69
2023/12/21 10:54:02;;;;;;;0.38;0.38;;;11.00;99.90;;;;;;4962357;28;20393;-69
2023/12/21 10:56:28;;;;;;;0.13;0.13;;;11.00;99.90;;;;;;4978598;28;20070;-70
2023/12/21 10:58:55;;;;;;;0.10;0.10;;;11.00;99.90;;;;;;4965685;28;20078;-70
2023/12/21 11:01:24;;;;;;;0.30;0.30;;;11.00;99.90;;;;;;4962829;28;20051;-70
2023/12/21 11:03:52;;;;;;;0.10;0.10;;;11.10;99.90;;;;;;4979722;28;20046;-72
2023/12/21 11:06:19;;;;;;;0.10;0.10;;;11.10;99.90;;;;;;4969833;28;20125;-72
2023/12/21 11:08:45;;;;;;;0.30;0.30;;;11.10;99.90;;;;;;4958978;28;20427;-72
2023/12/21 11:11:16;;;;;;;1.05;1.05;;;11.10;99.90;;;;;;4972722;28;20061;-72
2023/12/21 11:13:45;;;;;;;2.05;1.95;;;11.10;99.90;;;;;;4962856;28;20506;-72
2023/12/21 11:16:14;;;;;;;0.75;0.75;;;11.10;99.90;;;;;;4959612;28;20058;-72
2023/12/21 11:18:43;;;;;;;0.25;0.25;;;11.10;99.90;;;;;;4960817;28;20062;-72
2023/12/21 11:21:10;;;;;;;0.20;0.20;;;11.20;99.90;;;;;;4958939;28;20047;-73
2023/12/21 11:23:42;;;;;;;0.10;0.10;;;11.20;99.90;;;;;;4965184;28;20043;-72
2023/12/21 11:26:07;;;;;;;8.88;2.63;;;11.20;99.90;;;;;;4962835;28;20483;-72
2023/12/21 11:28:34;;;;;;;0.00;0.00;;;11.20;99.90;;;;;;4968481;28;20051;-72
2023/12/21 11:31:14;;;;;;;0.50;0.50;;;11.30;99.90;;;;;;4952735;28;20043;-72
2023/12/21 11:33:41;;;;;;;0.40;0.40;;;11.30;99.90;;;;;;4957468;28;20050;-72
2023/12/21 11:36:07;;;;;;;0.10;0.10;;;11.30;99.90;;;;;;4961067;28;20502;-72
2023/12/21 11:38:51;;;;;;;3.92;2.15;;;11.30;99.90;;;;;;4970153;28;20058;-72
2023/12/21 11:41:20;;;;;;;1.90;1.27;;;11.40;99.90;;;;;;4967021;28;20050;-72
2023/12/21 11:44:15;;;;;;;4.43;1.70;;;11.30;99.90;;;;;;4960856;28;20050;-72
2023/12/21 11:46:41;;;;;;;0.40;0.40;;;11.40;99.90;;;;;;4945815;28;20423;-72
2023/12/21 11:49:11;;;;;;;2.15;1.48;;;11.40;99.90;;;;;;4962017;28;20055;-71
2023/12/21 11:51:46;;;;;;;0.30;0.30;;;11.40;99.90;;;;;;4963466;28;20050;-72
2023/12/21 11:54:18;;;;;;;0.10;0.10;;;11.50;99.90;;;;;;4957097;28;20051;-72
2023/12/21 11:56:44;;;;;;;0.00;0.00;;;11.60;99.90;;;;;;4963921;28;20039;-72
2023/12/21 11:59:10;;;;;;;6.93;2.58;;;11.80;99.90;;;;;;4976424;28;20092;-71
2023/12/21 12:01:37;;;;;;;0.75;0.75;;;11.90;99.90;;;;;;4959808;28;20053;-72
2023/12/21 12:04:04;;;;;;;5.50;2.17;;;11.90;99.90;;;;;;4964477;28;20054;-71
2023/12/21 12:06:32;;;;;;;0.25;0.25;;;11.80;99.90;;;;;;4965934;28;20407;-72
2023/12/21 12:08:58;;;;;;;3.13;0.63;;;11.70;99.90;;;;;;4965309;28;20061;-72
2023/12/21 12:11:25;;;;;;;0.10;0.10;;;11.60;99.90;;;;;;4963101;28;20043;-72
2023/12/21 12:13:50;;;;;;;0.28;0.28;;;11.60;99.90;;;;;;4964484;28;20062;-72
2023/12/21 12:16:17;;;;;;;0.65;0.55;;;11.50;99.90;;;;;;4959340;28;20031;-71
2023/12/21 12:18:43;;;;;;;0.43;0.43;;;11.50;99.90;;;;;;4956848;28;20054;-71
2023/12/21 12:21:10;;;;;;;1.13;1.10;;;11.50;99.90;;;;;;4963947;28;20054;-71
2023/12/21 12:23:35;;;;;;;0.00;0.00;;;11.40;99.90;;;;;;4963387;28;20069;-71
2023/12/21 12:26:02;;;;;;;2.30;2.15;;;11.40;99.90;;;;;;4956534;28;20495;-71
2023/12/21 12:28:28;;;;;;;0.10;0.10;;;11.40;99.90;;;;;;4964274;28;20058;-71
2023/12/21 12:30:54;;;;;;;2.83;1.70;;;11.40;99.90;;;;;;4970041;28;20031;-71
2023/12/21 12:33:20;;;;;;;0.43;0.43;;;11.40;99.90;;;;;;4965880;28;20109;-71
2023/12/21 12:35:48;;;;;;;0.30;0.30;;;11.30;99.90;;;;;;4960178;28;20053;-72
2023/12/21 12:38:16;;;;;;;5.05;2.38;;;11.30;99.90;;;;;;4961947;28;20059;-71
2023/12/21 12:40:41;;;;;;;0.10;0.10;;;11.30;99.90;;;;;;4955043;28;20097;-71
2023/12/21 12:43:07;;;;;;;0.10;0.10;;;11.30;99.90;;;;;;4962586;28;20047;-71
2023/12/21 12:45:34;;;;;;;1.85;0.85;;;11.50;99.90;;;;;;4971445;28;20053;-71
2023/12/21 12:48:00;;;;;;;0.40;0.40;;;11.50;99.90;;;;;;4959476;28;20047;-70